Wetterdaten: Woche 12.04.10 - 18.04.10 (KW15)
Datum Zeit Temp. A. Feuchte A. Luftdruck Regen Wind Richtung Taupunkt Windchill Windben
12.04.2010 00:00 4,2 C 77 % 1015,6 hPa 0,0 l/m 0,0 km/h N-NO 0,5 C 4,2 C 0,0 km/h
12.04.2010 01:00 4,9 C 74 % 1015,1 hPa 0,0 l/m 0,0 km/h N-NO 0,7 C 4,9 C 0,0 km/h
12.04.2010 02:00 4,8 C 75 % 1014,6 hPa 0,0 l/m 0,0 km/h O 0,8 C 4,8 C 0,0 km/h
12.04.2010 03:00 4,6 C 72 % 1014,1 hPa 0,0 l/m 1,9 km/h N-NO -0,0 C 4,6 C 1,1 km/h
12.04.2010 04:00 3,1 C 76 % 1014,2 hPa 0,0 l/m 0,0 km/h NO -0,7 C 3,1 C 0,0 km/h
12.04.2010 05:00 2,3 C 80 % 1014,0 hPa 0,0 l/m 0,0 km/h NO -0,8 C 2,3 C 0,0 km/h
12.04.2010 06:00 3,6 C 77 % 1013,9 hPa 0,0 l/m 0,0 km/h NO -0,0 C 3,6 C 0,0 km/h
12.04.2010 07:00 4,9 C 75 % 1014,3 hPa 0,0 l/m 5,2 km/h N-NO 0,8 C 4,9 C 2,9 km/h
12.04.2010 08:00 5,8 C 72 % 1014,4 hPa 0,0 l/m 0,0 km/h NO 1,2 C 5,8 C 0,0 km/h
12.04.2010 09:00 6,8 C 68 % 1014,3 hPa 0,0 l/m 5,8 km/h NO 1,3 C 6,8 C 3,2 km/h
12.04.2010 10:00 9,3 C 59 % 1014,0 hPa 0,0 l/m 9,7 km/h N-NO 1,7 C 7,0 C 5,4 km/h
12.04.2010 11:00 10,3 C 55 % 1013,6 hPa 0,0 l/m 0,0 km/h N 1,7 C 10,3 C 0,0 km/h
12.04.2010 12:00 10,5 C 53 % 1013,3 hPa 0,0 l/m 1,9 km/h O 1,3 C 10,5 C 1,1 km/h
12.04.2010 13:00 12,4 C 49 % 1013,1 hPa 0,0 l/m 7,8 km/h N 2,0 C 11,5 C 4,3 km/h
12.04.2010 14:00 11,8 C 46 % 1012,5 hPa 0,0 l/m 7,1 km/h O-NO 0,6 C 11,3 C 4,0 km/h
12.04.2010 15:00 12,9 C 46 % 1012,0 hPa 0,0 l/m 0,0 km/h O-NO 1,6 C 12,9 C 0,0 km/h
12.04.2010 16:00 10,6 C 51 % 1012,0 hPa 0,0 l/m 0,0 km/h N-NO 0,9 C 10,6 C 0,0 km/h
12.04.2010 17:00 12,1 C 48 % 1011,9 hPa 0,0 l/m 0,0 km/h NO 1,4 C 12,1 C 0,0 km/h
12.04.2010 18:00 9,9 C 52 % 1012,0 hPa 0,0 l/m 0,0 km/h NO 0,5 C 9,9 C 0,0 km/h
12.04.2010 19:00 8,5 C 55 % 1012,0 hPa 0,0 l/m 0,0 km/h NO -0,0 C 8,5 C 0,0 km/h
12.04.2010 20:00 6,9 C 61 % 1012,4 hPa 0,0 l/m 0,0 km/h NO -0,1 C 6,9 C 0,0 km/h
12.04.2010 21:00 6,4 C 66 % 1012,8 hPa 0,0 l/m 15,6 km/h N-NO 0,5 C 0,5 C 8,6 km/h
12.04.2010 22:00 4,9 C 70 % 1012,6 hPa 0,0 l/m 0,0 km/h N-NO -0,1 C 4,9 C 0,0 km/h
12.04.2010 23:00 4,4 C 73 % 1012,5 hPa 0,0 l/m 0,0 km/h N -0,0 C 4,4 C 0,0 km/h
13.04.2010 00:00 3,8 C 76 % 1012,3 hPa 0,0 l/m 0,0 km/h SO -0,0 C 3,8 C 0,0 km/h
13.04.2010 01:00 2,1 C 78 % 1012,3 hPa 0,0 l/m 0,0 km/h N-NW -1,3 C 2,1 C 0,0 km/h
13.04.2010 02:00 2,6 C 82 % 1012,0 hPa 0,0 l/m 3,9 km/h W-SW -0,2 C 2,6 C 2,2 km/h
13.04.2010 03:00 0,9 C 84 % 1012,0 hPa 0,0 l/m 0,0 km/h O-SO -1,5 C 0,9 C 0,0 km/h
13.04.2010 04:00 -0,6 C 87 % 1012,3 hPa 0,0 l/m 0,0 km/h W-NW -2,5 C -0,6 C 0,0 km/h
13.04.2010 05:00 -1,1 C 88 % 1012,1 hPa 0,0 l/m 1,9 km/h SO -2,8 C -1,1 C 1,1 km/h
13.04.2010 06:00 -1,6 C 89 % 1012,4 hPa 0,0 l/m 0,0 km/h O-SO -3,2 C -1,6 C 0,0 km/h
13.04.2010 07:00 0,1 C 91 % 1012,6 hPa 0,0 l/m 0,0 km/h W -1,2 C 0,1 C 0,0 km/h
13.04.2010 08:00 3,4 C 90 % 1012,8 hPa 0,0 l/m 0,0 km/h W-SW 1,9 C 3,4 C 0,0 km/h
13.04.2010 09:00 4,4 C 88 % 1012,8 hPa 0,0 l/m 0,0 km/h S 2,6 C 4,4 C 0,0 km/h
13.04.2010 10:00 10,3 C 74 % 1012,7 hPa 0,0 l/m 0,0 km/h W-SW 5,9 C 10,3 C 0,0 km/h
13.04.2010 11:00 14,8 C 59 % 1012,3 hPa 0,0 l/m 13,0 km/h W-NW 6,9 C 11,7 C 7,2 km/h
13.04.2010 12:00 12,4 C 59 % 1012,1 hPa 0,0 l/m 0,0 km/h O-NO 4,6 C 12,4 C 0,0 km/h
13.04.2010 13:00 16,3 C 48 % 1011,9 hPa 0,0 l/m 0,0 km/h N-NO 5,3 C 16,3 C 0,0 km/h
13.04.2010 14:00 13,4 C 51 % 1011,7 hPa 0,0 l/m 0,6 km/h NO 3,5 C 13,4 C 0,4 km/h
13.04.2010 15:00 16,3 C 45 % 1011,3 hPa 0,0 l/m 0,6 km/h N-NO 4,3 C 16,3 C 0,4 km/h
13.04.2010 16:00 16,4 C 45 % 1011,3 hPa 0,0 l/m 25,3 km/h O-SO 4,4 C 10,4 C 14,0 km/h
13.04.2010 17:00 17,6 C 47 % 1011,1 hPa 0,0 l/m 0,0 km/h NO 6,2 C 17,6 C 0,0 km/h
13.04.2010 18:00 16,7 C 41 % 1011,3 hPa 0,0 l/m 0,6 km/h N-NO 3,4 C 16,7 C 0,4 km/h
13.04.2010 19:00 11,9 C 51 % 1011,3 hPa 0,0 l/m 2,6 km/h S-SO 2,1 C 11,9 C 1,4 km/h
13.04.2010 20:00 7,8 C 66 % 1012,0 hPa 0,0 l/m 3,9 km/h O-SO 1,9 C 7,8 C 2,2 km/h
13.04.2010 21:00 4,4 C 75 % 1012,5 hPa 0,0 l/m 0,0 km/h SO 0,4 C 4,4 C 0,0 km/h
13.04.2010 22:00 2,9 C 81 % 1012,7 hPa 0,0 l/m 0,0 km/h SO -0,0 C 2,9 C 0,0 km/h
13.04.2010 23:00 2,1 C 83 % 1012,7 hPa 0,0 l/m 0,0 km/h O-NO -0,5 C 2,1 C 0,0 km/h
14.04.2010 00:00 2,4 C 85 % 1012,8 hPa 0,0 l/m 0,0 km/h O-NO 0,1 C 2,4 C 0,0 km/h
14.04.2010 01:00 1,4 C 87 % 1012,4 hPa 0,0 l/m 0,0 km/h SO -0,5 C 1,4 C 0,0 km/h
14.04.2010 02:00 1,3 C 88 % 1012,4 hPa 0,0 l/m 0,0 km/h O-NO -0,5 C 1,3 C 0,0 km/h
14.04.2010 03:00 2,1 C 88 % 1012,5 hPa 0,0 l/m 0,0 km/h O-NO 0,3 C 2,1 C 0,0 km/h
14.04.2010 04:00 1,3 C 89 % 1012,4 hPa 0,0 l/m 0,0 km/h SO -0,3 C 1,3 C 0,0 km/h
14.04.2010 05:00 1,8 C 90 % 1012,5 hPa 0,0 l/m 0,0 km/h O-NO 0,3 C 1,8 C 0,0 km/h
14.04.2010 06:00 2,4 C 90 % 1012,6 hPa 0,0 l/m 0,0 km/h NO 0,9 C 2,4 C 0,0 km/h
14.04.2010 07:00 3,8 C 89 % 1012,7 hPa 0,0 l/m 0,0 km/h O-NO 2,2 C 3,8 C 0,0 km/h
14.04.2010 08:00 5,1 C 88 % 1012,9 hPa 0,4 l/m 0,0 km/h SO 3,3 C 5,1 C 0,0 km/h
14.04.2010 09:00 6,6 C 86 % 1012,8 hPa 0,0 l/m 0,0 km/h NW 4,4 C 6,6 C 0,0 km/h
14.04.2010 10:00 7,6 C 83 % 1013,3 hPa 0,0 l/m 2,6 km/h S-SO 4,9 C 7,6 C 1,4 km/h
14.04.2010 11:00 7,5 C 84 % 1013,2 hPa 0,0 l/m 0,0 km/h S-SO 5,0 C 7,5 C 0,0 km/h
14.04.2010 12:00 9,6 C 78 % 1013,1 hPa 0,0 l/m 0,0 km/h W 6,0 C 9,6 C 0,0 km/h
14.04.2010 13:00 9,8 C 79 % 1013,0 hPa 0,0 l/m 3,2 km/h N 6,3 C 9,8 C 1,8 km/h
14.04.2010 14:00 10,3 C 76 % 1013,0 hPa 0,0 l/m 0,0 km/h N-NO 6,3 C 10,3 C 0,0 km/h
14.04.2010 15:00 15,4 C 62 % 1012,6 hPa 0,0 l/m 0,0 km/h O 8,2 C 15,4 C 0,0 km/h
14.04.2010 16:00 16,3 C 54 % 1012,1 hPa 0,0 l/m 0,0 km/h O 7,0 C 16,3 C 0,0 km/h
14.04.2010 17:00 13,9 C 58 % 1012,2 hPa 0,0 l/m 16,2 km/h O-SO 5,8 C 9,5 C 9,0 km/h
14.04.2010 18:00 10,1 C 68 % 1011,9 hPa 0,0 l/m 17,5 km/h NW 4,5 C 4,3 C 9,7 km/h
14.04.2010 19:00 8,4 C 73 % 1012,3 hPa 0,0 l/m 0,0 km/h SO 3,8 C 8,4 C 0,0 km/h
14.04.2010 20:00 7,8 C 79 % 1012,4 hPa 0,0 l/m 6,5 km/h O-SO 4,4 C 7,7 C 3,6 km/h
14.04.2010 21:00 7,0 C 82 % 1012,8 hPa 0,0 l/m 0,0 km/h O-NO 4,1 C 7,0 C 0,0 km/h
14.04.2010 22:00 6,3 C 83 % 1012,9 hPa 0,0 l/m 0,0 km/h O 3,6 C 6,3 C 0,0 km/h
14.04.2010 23:00 5,1 C 85 % 1012,9 hPa 0,0 l/m 0,0 km/h O-NO 2,8 C 5,1 C 0,0 km/h
15.04.2010 00:00 4,4 C 88 % 1012,9 hPa 0,0 l/m 0,0 km/h O-NO 2,6 C 4,4 C 0,0 km/h
15.04.2010 01:00 2,8 C 89 % 1012,8 hPa 0,0 l/m 0,0 km/h NO 1,2 C 2,8 C 0,0 km/h
15.04.2010 02:00 3,1 C 90 % 1012,7 hPa 0,0 l/m 0,0 km/h SO 1,6 C 3,1 C 0,0 km/h
15.04.2010 03:00 2,6 C 91 % 1012,8 hPa 0,0 l/m 0,0 km/h O-NO 1,3 C 2,6 C 0,0 km/h
15.04.2010 04:00 2,4 C 91 % 1013,0 hPa 0,0 l/m 0,0 km/h NO 1,1 C 2,4 C 0,0 km/h
15.04.2010 05:00 2,5 C 91 % 1012,9 hPa 0,0 l/m 0,0 km/h O-SO 1,2 C 2,5 C 0,0 km/h
15.04.2010 06:00 1,9 C 92 % 1013,1 hPa 0,0 l/m 0,0 km/h NO 0,7 C 1,9 C 0,0 km/h
15.04.2010 07:00 3,3 C 93 % 1013,3 hPa 0,0 l/m 0,0 km/h SO 2,3 C 3,3 C 0,0 km/h
15.04.2010 08:00 8,8 C 82 % 1013,5 hPa 0,0 l/m 0,0 km/h S 5,9 C 8,8 C 0,0 km/h
15.04.2010 09:00 11,1 C 74 % 1013,7 hPa 0,0 l/m 4,5 km/h NW 6,6 C 11,1 C 2,5 km/h
15.04.2010 10:00 15,3 C 56 % 1013,7 hPa 0,0 l/m 1,3 km/h N-NW 6,6 C 15,3 C 0,7 km/h
15.04.2010 11:00 14,4 C 58 % 1013,8 hPa 0,0 l/m 3,2 km/h N-NO 6,2 C 14,4 C 1,8 km/h
15.04.2010 12:00 14,5 C 54 % 1013,8 hPa 0,0 l/m 1,9 km/h NO 5,3 C 14,5 C 1,1 km/h
15.04.2010 13:00 14,9 C 52 % 1013,7 hPa 0,0 l/m 0,0 km/h O-SO 5,1 C 14,9 C 0,0 km/h
15.04.2010 14:00 14,4 C 50 % 1013,8 hPa 0,0 l/m 1,9 km/h O-SO 4,1 C 14,4 C 1,1 km/h
15.04.2010 15:00 14,4 C 50 % 1013,6 hPa 0,0 l/m 1,9 km/h SW 4,1 C 14,4 C 1,1 km/h
15.04.2010 16:00 15,2 C 46 % 1013,2 hPa 0,0 l/m 1,3 km/h SO 3,7 C 15,2 C 0,7 km/h
15.04.2010 17:00 16,5 C 43 % 1013,1 hPa 0,0 l/m 1,9 km/h O-NO 3,9 C 16,5 C 1,1 km/h
15.04.2010 18:00 17,3 C 41 % 1013,4 hPa 0,0 l/m 1,9 km/h O-NO 3,9 C 17,3 C 1,1 km/h
15.04.2010 19:00 11,2 C 55 % 1013,6 hPa 0,0 l/m 0,0 km/h NO 2,5 C 11,2 C 0,0 km/h
15.04.2010 20:00 9,6 C 64 % 1014,0 hPa 0,0 l/m 0,0 km/h O-NO 3,1 C 9,6 C 0,0 km/h
15.04.2010 21:00 9,3 C 66 % 1014,4 hPa 0,0 l/m 0,0 km/h NO 3,3 C 9,3 C 0,0 km/h
15.04.2010 22:00 8,1 C 70 % 1014,8 hPa 0,0 l/m 0,0 km/h S-SW 3,0 C 8,1 C 0,0 km/h
15.04.2010 23:00 5,2 C 76 % 1015,0 hPa 0,0 l/m 0,0 km/h W 1,3 C 5,2 C 0,0 km/h
16.04.2010 00:00 3,9 C 83 % 1015,2 hPa 0,0 l/m 0,0 km/h SW 1,3 C 3,9 C 0,0 km/h
16.04.2010 01:00 2,9 C 84 % 1015,3 hPa 0,0 l/m 0,0 km/h O-NO 0,5 C 2,9 C 0,0 km/h
16.04.2010 02:00 2,4 C 86 % 1015,2 hPa 0,0 l/m 0,0 km/h NO 0,3 C 2,4 C 0,0 km/h
16.04.2010 03:00 2,5 C 88 % 1015,3 hPa 0,0 l/m 0,0 km/h W-NW 0,7 C 2,5 C 0,0 km/h
16.04.2010 04:00 1,6 C 88 % 1015,4 hPa 0,0 l/m 0,0 km/h SO -0,2 C 1,6 C 0,0 km/h
16.04.2010 05:00 2,1 C 90 % 1015,3 hPa 0,0 l/m 0,0 km/h O 0,6 C 2,1 C 0,0 km/h
16.04.2010 06:00 1,4 C 91 % 1015,7 hPa 0,0 l/m 0,0 km/h W 0,1 C 1,4 C 0,0 km/h
16.04.2010 07:00 4,1 C 91 % 1016,2 hPa 0,0 l/m 0,0 km/h W 2,8 C 4,1 C 0,0 km/h
16.04.2010 08:00 6,3 C 90 % 1016,5 hPa 0,0 l/m 0,0 km/h N-NW 4,8 C 6,3 C 0,0 km/h
16.04.2010 09:00 8,7 C 82 % 1016,7 hPa 0,0 l/m 2,6 km/h N-NO 5,8 C 8,7 C 1,4 km/h
16.04.2010 10:00 12,2 C 71 % 1017,0 hPa 0,0 l/m 0,0 km/h NO 7,1 C 12,2 C 0,0 km/h
16.04.2010 11:00 13,3 C 65 % 1017,3 hPa 0,0 l/m 1,3 km/h N-NO 6,9 C 13,3 C 0,7 km/h
16.04.2010 12:00 15,2 C 59 % 1017,1 hPa 0,0 l/m 1,9 km/h N-NO 7,2 C 15,2 C 1,1 km/h
16.04.2010 13:00 16,1 C 53 % 1017,0 hPa 0,0 l/m 0,0 km/h N 6,5 C 16,1 C 0,0 km/h
16.04.2010 14:00 15,9 C 52 % 1017,1 hPa 0,0 l/m 13,0 km/h NO 6,1 C 12,9 C 7,2 km/h
16.04.2010 15:00 19,4 C 46 % 1016,7 hPa 0,0 l/m 3,2 km/h SO 7,5 C 19,4 C 1,8 km/h
16.04.2010 16:00 19,9 C 44 % 1016,4 hPa 0,0 l/m 9,1 km/h SO 7,3 C 18,8 C 5,0 km/h
16.04.2010 17:00 14,9 C 52 % 1016,7 hPa 0,0 l/m 22,7 km/h NO 5,1 C 9,0 C 12,6 km/h
16.04.2010 18:00 14,1 C 53 % 1016,9 hPa 0,0 l/m 0,0 km/h NO 4,7 C 14,1 C 0,0 km/h
16.04.2010 19:00 12,1 C 59 % 1016,9 hPa 0,0 l/m 0,0 km/h O-NO 4,3 C 12,1 C 0,0 km/h
16.04.2010 20:00 9,9 C 68 % 1017,2 hPa 0,0 l/m 0,0 km/h SO 4,3 C 9,9 C 0,0 km/h
16.04.2010 21:00 9,1 C 73 % 1018,1 hPa 0,0 l/m 0,0 km/h SO 4,5 C 9,1 C 0,0 km/h
16.04.2010 22:00 8,3 C 77 % 1018,0 hPa 0,0 l/m 0,0 km/h O-NO 4,5 C 8,3 C 0,0 km/h
16.04.2010 23:00 6,7 C 82 % 1018,3 hPa 0,0 l/m 0,0 km/h O-NO 3,8 C 6,7 C 0,0 km/h
17.04.2010 00:00 5,5 C 85 % 1018,3 hPa 0,0 l/m 0,0 km/h N-NO 3,2 C 5,5 C 0,0 km/h
17.04.2010 01:00 7,1 C 82 % 1018,5 hPa 0,0 l/m 7,8 km/h NW 4,2 C 6,0 C 4,3 km/h
17.04.2010 02:00 6,4 C 79 % 1018,3 hPa 0,0 l/m 0,0 km/h O-SO 3,0 C 6,4 C 0,0 km/h
17.04.2010 03:00 3,8 C 84 % 1018,4 hPa 0,0 l/m 0,0 km/h O-NO 1,4 C 3,8 C 0,0 km/h
17.04.2010 04:00 2,2 C 87 % 1018,7 hPa 0,0 l/m 0,0 km/h W-SW 0,3 C 2,2 C 0,0 km/h
17.04.2010 05:00 1,0 C 88 % 1018,7 hPa 0,0 l/m 0,0 km/h SO -0,8 C 1,0 C 0,0 km/h
17.04.2010 06:00 0,5 C 89 % 1018,7 hPa 0,0 l/m 0,0 km/h NO -1,1 C 0,5 C 0,0 km/h
17.04.2010 07:00 2,8 C 92 % 1018,7 hPa 0,0 l/m 0,0 km/h W 1,6 C 2,8 C 0,0 km/h
17.04.2010 08:00 10,1 C 74 % 1018,4 hPa 0,0 l/m 0,0 km/h NW 5,7 C 10,1 C 0,0 km/h
17.04.2010 09:00 13,3 C 57 % 1018,1 hPa 0,0 l/m 3,9 km/h W-NW 5,0 C 13,3 C 2,2 km/h
17.04.2010 10:00 15,9 C 53 % 1018,3 hPa 0,0 l/m 14,9 km/h W-SW 6,3 C 12,3 C 8,3 km/h
17.04.2010 11:00 18,0 C 52 % 1017,9 hPa 0,0 l/m 9,7 km/h W 8,0 C 16,5 C 5,4 km/h
17.04.2010 12:00 18,9 C 51 % 1017,0 hPa 0,0 l/m 13,6 km/h W-NW 8,5 C 16,3 C 7,6 km/h
17.04.2010 13:00 20,4 C 46 % 1016,2 hPa 0,0 l/m 13,0 km/h N-NO 8,4 C 18,2 C 7,2 km/h
17.04.2010 14:00 22,9 C 35 % 1015,4 hPa 0,0 l/m 11,0 km/h N 6,6 C 21,6 C 6,1 km/h
17.04.2010 15:00 24,5 C 31 % 1014,4 hPa 0,0 l/m 18,8 km/h NO 6,3 C 22,2 C 10,4 km/h
17.04.2010 16:00 26,2 C 30 % 1013,9 hPa 0,0 l/m 8,4 km/h NO 7,2 C 25,8 C 4,7 km/h
17.04.2010 17:00 24,5 C 31 % 1013,4 hPa 0,0 l/m 9,7 km/h O-NO 6,3 C 23,7 C 5,4 km/h
17.04.2010 18:00 22,3 C 34 % 1013,2 hPa 0,0 l/m 1,3 km/h NO 5,7 C 22,3 C 0,7 km/h
17.04.2010 19:00 15,9 C 45 % 1013,2 hPa 0,0 l/m 0,0 km/h NO 4,0 C 15,9 C 0,0 km/h
17.04.2010 20:00 12,1 C 54 % 1013,5 hPa 0,0 l/m 0,0 km/h SO 3,1 C 12,1 C 0,0 km/h
17.04.2010 21:00 8,5 C 64 % 1013,9 hPa 0,0 l/m 0,0 km/h S 2,1 C 8,5 C 0,0 km/h
17.04.2010 22:00 6,2 C 72 % 1013,9 hPa 0,0 l/m 0,0 km/h O-NO 1,5 C 6,2 C 0,0 km/h
17.04.2010 23:00 7,5 C 71 % 1014,0 hPa 0,0 l/m 0,0 km/h N-NO 2,6 C 7,5 C 0,0 km/h
18.04.2010 00:00 4,9 C 76 % 1013,5 hPa 0,0 l/m 0,0 km/h N-NO 1,0 C 4,9 C 0,0 km/h
18.04.2010 01:00 4,7 C 80 % 1013,3 hPa 0,0 l/m 0,0 km/h O-SO 1,6 C 4,7 C 0,0 km/h
18.04.2010 02:00 5,9 C 75 % 1012,6 hPa 0,0 l/m 10,4 km/h W 1,8 C 2,8 C 5,8 km/h
18.04.2010 03:00 4,4 C 76 % 1012,5 hPa 0,0 l/m 0,0 km/h NO 0,5 C 4,4 C 0,0 km/h
18.04.2010 04:00 2,4 C 84 % 1012,4 hPa 0,0 l/m 0,0 km/h N-NO -0,0 C 2,4 C 0,0 km/h
18.04.2010 05:00 2,1 C 86 % 1012,0 hPa 0,0 l/m 1,9 km/h NO 0,0 C 2,1 C 1,1 km/h
18.04.2010 06:00 1,4 C 86 % 1012,0 hPa 0,0 l/m 0,0 km/h NO -0,7 C 1,4 C 0,0 km/h
18.04.2010 07:00 4,3 C 86 % 1012,3 hPa 0,0 l/m 3,2 km/h N-NO 2,2 C 4,3 C 1,8 km/h
18.04.2010 08:00 12,8 C 67 % 1012,2 hPa 0,0 l/m 0,0 km/h W-NW 6,8 C 12,8 C 0,0 km/h
18.04.2010 09:00 16,1 C 53 % 1012,4 hPa 0,0 l/m 0,0 km/h W 6,5 C 16,1 C 0,0 km/h
18.04.2010 10:00 17,2 C 50 % 1012,5 hPa 0,0 l/m 1,9 km/h N-NO 6,7 C 17,2 C 1,1 km/h
18.04.2010 11:00 19,0 C 45 % 1012,2 hPa 0,0 l/m 0,0 km/h S-SW 6,8 C 19,0 C 0,0 km/h
18.04.2010 12:00 20,2 C 43 % 1011,6 hPa 0,0 l/m 5,8 km/h N 7,2 C 20,2 C 3,2 km/h
18.04.2010 13:00 20,8 C 37 % 1010,9 hPa 0,0 l/m 4,5 km/h W 5,6 C 20,8 C 2,5 km/h
18.04.2010 14:00 23,1 C 34 % 1010,5 hPa 0,0 l/m 3,9 km/h W-NW 6,4 C 23,1 C 2,2 km/h
18.04.2010 15:00 24,4 C 29 % 1010,1 hPa 0,0 l/m 0,0 km/h W-NW 5,2 C 24,4 C 0,0 km/h
18.04.2010 16:00 27,1 C 29 % 1009,7 hPa 0,0 l/m 3,2 km/h N-NW 7,5 C 27,1 C 1,8 km/h
18.04.2010 17:00 27,3 C 26 % 1009,6 hPa 0,0 l/m 7,1 km/h NO 6,1 C 27,2 C 4,0 km/h
18.04.2010 18:00 23,6 C 30 % 1009,7 hPa 0,0 l/m 0,0 km/h N-NO 5,0 C 23,6 C 0,0 km/h
18.04.2010 19:00 17,9 C 40 % 1010,0 hPa 0,0 l/m 0,0 km/h O-NO 4,1 C 17,9 C 0,0 km/h
18.04.2010 20:00 12,2 C 59 % 1010,5 hPa 0,0 l/m 0,0 km/h SO 4,4 C 12,2 C 0,0 km/h
18.04.2010 21:00 9,7 C 66 % 1010,9 hPa 0,0 l/m 0,0 km/h O-SO 3,7 C 9,7 C 0,0 km/h
18.04.2010 22:00 8,8 C 70 % 1011,1 hPa 0,0 l/m 0,0 km/h O-SO 3,6 C 8,8 C 0,0 km/h
18.04.2010 23:00 7,6 C 73 % 1011,0 hPa 0,0 l/m 0,0 km/h NO 3,1 C 7,6 C 0,0 km/h
Min-Datum _ 13.04.10 18.04.10 18.04.10 - 12.04.10 - 13.04.10 13.04.10 12.04.10
_ Min-Zeit 06:53 17:53 17:53 - 00:53 - 06:53 06:53 00:53
Minimum _ -1,6 C 26 % 1009,6 hPa - 0,0 km/h - -3,2 C -1,6 C 0,0 km/h
Max-Datum _ 18.04.10 15.04.10 17.04.10 14.04.10 13.04.10 - 17.04.10 18.04.10 13.04.10
_ Max-Zeit 17:53 07:53 04:53 08:53 16:53 - 12:53 17:53 16:53
Maximum _ 27,3 C 93 % 1018,7 hPa 0,4 l/m 25,3 km/h
O-SO
- 8,5 C 27,2 C 14,0 km/h
O-SO
Durchschnitt _ 9,4 C 68 % 1013,7 hPa #0,4 l/m 2,3 km/h NO 3,0 C 9,0 C 1,3 km/h